Latest Coastal Weather Observations for Roebourne Airport

IDW60701

Issued at 11:17 pm WST Sunday 26 June 2016 (issued every 10 minutes, with the page automatically refreshed every 10 minutes)

About coastal observations | Map of coastal stations | Coastal observations for WA | Marine services | Other Formats
Station Details ID: 004090 Name: ROEBOURNE AERO Lat: -20.76 Lon: 117.16 Height: 10.7 m
Data from the previous 72 hours. | See also: Recent months at Roebourne Airport
Date/Time
WST
Temp
°C
Wind Pressure Rain since
9am
mm
Weather Cloud Vis
km
Sea
Height
m
Swell
Dir  Spd
kts
Gust
kts
hPa Trend Height
m
Period
s
Dir
26/11:00pm 16.2 SE 10 12 1018.5 - 0.0 - - - - - - -
26/10:30pm 16.5 ESE 10 12 1018.6 - 0.0 - - - - - - -
26/10:00pm 17.3 SE 10 13 1018.7 - 0.0 - - - - - - -
26/09:30pm 16.9 SE 9 11 1018.6 - 0.0 - - - - - - -
26/09:00pm 15.8 SE 9 9 1018.6 - 0.0 - - - - - - -
26/08:30pm 15.6 ESE 8 10 1018.5 - 0.0 - - - - - - -
26/08:00pm 15.6 ESE 8 9 1018.2 - 0.0 - - - - - - -
26/07:30pm 17.4 ESE 9 11 1018.0 - 0.0 - - - - - - -
26/07:00pm 18.0 ESE 9 13 1017.8 - 0.0 - - - - - - -
26/06:30pm 18.0 ESE 8 9 1017.6 - 0.0 - - - - - - -
26/06:00pm 19.3 ESE 8 9 1017.2 - 0.0 - - - - - - -
26/05:30pm 21.5 ESE 10 13 1016.9 - 0.0 - - - - - - -
26/05:00pm 23.0 ESE 13 17 1016.7 - 0.0 - - - - - - -
26/04:30pm 23.6 ESE 14 18 1016.6 - 0.0 - - - - - - -
26/04:00pm 24.0 ESE 13 18 1016.4 - 0.0 - - - - - - -
26/03:30pm 24.2 ESE 15 20 1016.6 - 0.0 - - - - - - -
26/03:00pm 24.1 ESE 14 19 1016.6 - 0.0 - - - - - - -
26/02:30pm 24.0 ESE 16 20 1016.5 - 0.0 - - - - - - -
26/02:00pm 23.6 ESE 15 22 1016.6 - 0.0 - - - - - - -
26/01:30pm 22.9 ESE 17 23 1016.8 - 0.0 - - - - - - -
26/01:00pm 22.3 ESE 17 22 1017.2 - 0.0 - - - - - - -
26/12:30pm 22.1 ESE 16 22 1017.7 - 0.0 - - - - - - -
26/12:00pm 21.2 ESE 18 24 1017.9 - 0.0 - - - - - - -
26/11:30am 21.0 ESE 19 27 1018.3 - 0.0 - - - - - - -
26/11:00am 21.0 ESE 17 23 1018.8 - 0.0 - - - - - - -
26/10:30am 20.3 ESE 18 24 1019.2 - 0.0 - - - - - - -
26/10:00am 20.1 ESE 17 23 1019.5 - 0.0 - - - - - - -
26/09:30am 19.3 E 15 21 1019.5 - 0.0 - - - - - - -
26/09:00am 18.5 E 14 19 1019.3 - 0.2 - - - - - - -
26/08:30am 17.8 E 10 13 1019.3 - 0.2 - - - - - - -
26/08:00am 16.5 E 8 12 1019.2 - 0.2 - - - - - - -
26/07:30am 15.2 ESE 8 10 1018.8 - 0.2 - - - - - - -
26/07:00am 14.7 ESE 9 11 1018.4 - 0.2 - - - - - - -
26/06:30am 14.9 ESE 9 11 1018.2 - 0.2 - - - - - - -
26/06:00am 15.1 SE 10 13 1017.8 - 0.2 - - - - - - -
26/05:30am 14.3 ESE 7 9 1017.6 - 0.2 - - - - - - -
26/05:00am 14.4 ESE 3 5 1017.3 - 0.2 - - - - - - -
26/04:30am 14.8 SE 4 5 1017.5 - 0.2 - - - - - - -
26/04:00am 15.4 ENE 3 4 1017.5 - 0.2 - - - - - - -
26/03:30am 15.5 ENE 2 4 1017.4 - 0.2 - - - - - - -
26/03:00am 15.4 ESE 3 5 1017.2 - 0.2 - - - - - - -
26/02:30am 15.7 SE 6 6 1017.1 - 0.2 - - - - - - -
26/02:00am 16.0 E 6 7 1017.1 - 0.2 - - - - - - -
26/01:30am 16.6 ESE 7 8 1017.0 - 0.2 - - - - - - -
26/01:00am 17.1 SE 6 9 1017.1 - 0.2 - - - - - - -
26/12:30am 17.5 S 7 7 1017.2 - 0.2 - - - - - - -
26/12:00am 18.9 SSE 9 11 1017.1 - 0.2 - - - - - - -
 
Date/Time
WST
Temp
°C
Wind Pressure Rain since
9am
mm
Weather Cloud Vis
km
Sea
Height
m
Swell
Dir  Spd
kts
Gust
kts
hPa Trend Height
m
Period
s
Dir
25/11:30pm 18.3 SSE 7 9 1017.0 - 0.2 - - - - - - -
25/11:00pm 18.5 SSE 7 9 1016.7 - 0.2 - - - - - - -
25/10:30pm 18.6 S 7 8 1016.5 - 0.2 - - - - - - -
25/10:00pm 19.0 SSE 7 9 1016.2 - 0.2 - - - - - - -
25/09:30pm 19.3 SSE 7 8 1016.0 - 0.2 - - - - - - -
25/09:00pm 20.2 S 9 10 1015.9 - 0.2 - - - - - - -
25/08:30pm 20.6 S 9 11 1015.7 - 0.2 - - - - - - -
25/08:00pm 20.4 SW 3 5 1015.4 - 0.2 - - - - - - -
25/07:30pm 21.0 WNW 1 3 1015.0 - 0.2 - - - - - - -
25/07:00pm 21.1 NW 5 6 1014.7 - 0.2 - - - - - - -
25/06:30pm 21.7 NNW 5 7 1014.3 - 0.2 - - - - - - -
25/06:00pm 22.7 NNW 3 6 1013.9 - 0.2 - - - - - - -
25/05:30pm 23.9 NW 5 8 1013.6 - 0.2 - - - - - - -
25/05:00pm 26.0 W 7 9 1013.3 - 0.2 - - - - - - -
25/04:30pm 26.1 W 6 8 1013.1 - 0.2 - - - - - - -
25/04:00pm 25.8 WSW 8 12 1012.9 - 0.2 - - - - - - -
25/03:30pm 25.9 W 7 11 1012.7 - 0.2 - - - - - - -
25/03:00pm 25.5 SW 6 10 1012.7 - 0.2 - - - - - - -
25/02:30pm 25.2 WSW 8 11 1013.0 - 0.2 - - - - - - -
25/02:00pm 25.2 W 8 12 1013.3 - 0.2 - - - - - - -
25/01:30pm 24.4 WSW 7 11 1013.7 - 0.2 - - - - - - -
25/01:00pm 23.7 SW 5 8 1013.9 - 0.2 - - - - - - -
25/12:30pm 23.3 SW 5 7 1014.5 - 0.0 - - - - - - -
25/12:00pm 23.1 S 4 6 1014.9 - 0.0 - - - - - - -
25/11:30am 22.7 S 6 7 1015.6 - 0.0 - - - - - - -
25/11:00am 22.0 SSE 7 10 1015.9 - 0.0 - - - - - - -
25/10:30am 21.9 SSE 7 10 1015.9 - 0.0 - - - - - - -
25/10:00am 21.5 SSE 6 7 1016.1 - 0.0 - - - - - - -
25/09:30am 20.9 S 6 8 1016.1 - 0.0 - - - - - - -
25/09:00am 19.7 S 7 9 1016.0 - 18.8 - - - - - - -
25/08:30am 19.2 S 5 6 1015.8 - 18.8 - - - - - - -
25/08:00am 19.1 S 5 7 1015.5 - 18.8 - - - - - - -
25/07:30am 18.7 SE 4 5 1015.3 - 18.8 - - - - - - -
25/07:00am 18.6 SE 5 6 1014.7 - 18.8 - - - - - - -
25/06:30am 18.5 S 9 11 1014.7 - 18.8 - - - - - - -
25/06:00am 18.6 SSW 8 10 1014.2 - 18.8 Recent precip. - - - - - -
25/05:30am 18.9 S 5 7 1014.0 - 18.6 - - - - - - -
25/05:00am 18.8 SSE 5 8 1013.7 - 18.4 - - - - - - -
25/04:30am 18.7 SE 7 9 1013.6 - 18.0 - - - - - - -
25/04:00am 18.7 SE 8 10 1013.4 - 18.0 - - - - - - -
25/03:30am 18.7 SE 8 11 1013.2 - 18.0 - - - - - - -
25/03:00am 18.8 SSE 9 11 1013.4 - 18.0 Rain - - - - - -
25/02:30am 18.9 SE 6 7 1013.7 - 17.6 - - - - - - -
25/02:00am 18.6 SE 8 13 1013.8 - 17.4 - - - - - - -
25/01:30am 18.6 SE 9 11 1014.0 - 17.0 - - - - - - -
25/01:00am 18.5 SE 10 13 1014.0 - 16.8 - - - - - - -
25/12:30am 18.5 SE 11 15 1013.9 - 15.8 - - - - - - -
25/12:00am 18.6 ESE 11 14 1013.9 - 13.8 Rain - - - - - -
 
Date/Time
WST
Temp
°C
Wind Pressure Rain since
9am
mm
Weather Cloud Vis
km
Sea
Height
m
Swell
Dir  Spd
kts
Gust
kts
hPa Trend Height
m
Period
s
Dir
24/11:30pm 18.5 SE 9 13 1014.3 - 11.6 - - - - - - -
24/11:00pm 18.9 SE 10 13 1014.4 - 9.0 - - - - - - -
24/10:30pm 18.9 SE 9 12 1014.7 - 6.4 - - - - - - -
24/10:00pm 19.2 SE 7 9 1014.8 - 5.4 - - - - - - -
24/09:30pm 19.6 SE 8 11 1014.5 - 4.0 - - - - - - -
24/09:00pm 21.6 E 4 5 1014.4 - 2.2 Rain - - - - - -
24/08:30pm 21.8 NNE 4 5 1014.3 - 0.6 - - - - - - -
24/08:00pm 22.3 ENE 6 7 1013.8 - 0.0 - - - - - - -
24/07:30pm 22.3 ENE 6 8 1013.6 - 0.0 - - - - - - -
24/07:00pm 22.3 ENE 8 9 1013.1 - 0.0 - - - - - - -
24/06:30pm 22.3 ENE 8 10 1013.1 - 0.0 - - - - - - -
24/06:00pm 22.2 ENE 9 11 1013.1 - 0.0 - - - - - - -
24/05:30pm 22.3 ENE 9 11 1013.1 - 0.0 - - - - - - -
24/05:00pm 22.3 NE 9 12 1013.0 - 0.0 - - - - - - -
24/04:30pm 22.2 NE 10 13 1012.8 - 0.0 - - - - - - -
24/04:00pm 22.4 NE 11 13 1012.8 - 0.0 - - - - - - -
24/03:30pm 22.5 NNE 11 13 1012.8 - 0.0 - - - - - - -
24/03:00pm 23.0 NE 9 11 1012.9 - 0.0 - - - - - - -
24/02:30pm 23.1 NNE 9 11 1013.2 - 0.0 - - - - - - -
24/02:00pm 23.3 NE 10 12 1013.1 - 0.0 - - - - - - -
24/01:30pm 23.6 NE 12 15 1013.0 - 0.0 - - - - - - -
24/01:00pm 23.4 NE 12 15 1013.5 - 0.0 - - - - - - -
24/12:30pm 23.3 ENE 11 14 1013.8 - 0.0 - - - - - - -
24/12:00pm 23.1 E 10 13 1014.2 - 0.0 - - - - - - -
24/11:30am 22.9 ESE 11 15 1014.5 - 0.0 - - - - - - -
24/11:00am 22.8 ESE 12 17 1014.6 - 0.0 - - - - - - -
24/10:30am 21.5 E 12 16 1015.2 - 0.0 - - - - - - -
24/10:00am 20.4 E 13 16 1015.4 - 0.0 - - - - - - -
24/09:30am 19.9 E 13 17 1015.7 - 0.0 - - - - - - -
24/09:00am 19.9 E 12 16 1015.9 - 1.4 - - - - - - -
24/08:30am 19.6 E 10 14 1015.6 - 1.4 - - - - - - -
24/08:00am 19.1 E 9 11 1015.4 - 1.4 - - - - - - -
24/07:30am 18.7 E 8 11 1015.3 - 1.4 - - - - - - -
24/07:00am 18.5 ESE 7 9 1015.2 - 1.4 - - - - - - -
24/06:30am 18.5 ESE 6 7 1015.1 - 1.0 - - - - - - -
24/06:00am 18.4 E 7 9 1014.6 - 1.0 - - - - - - -
24/05:30am 18.5 SE 5 6 1014.6 - 1.0 - - - - - - -
24/05:00am 18.5 E 7 9 1014.1 - 1.0 - - - - - - -
24/04:30am 18.4 E 9 12 1013.6 - 1.0 - - - - - - -
24/04:00am 18.8 E 9 11 1014.0 - 0.2 - - - - - - -
24/03:30am 19.3 E 10 12 1014.1 - 0.2 - - - - - - -
24/03:00am 19.4 ESE 9 13 1014.5 - 0.2 - - - - - - -
24/02:30am 19.6 ESE 13 17 1014.2 - 0.2 - - - - - - -
24/02:00am 19.7 ESE 10 13 1014.3 - 0.2 - - - - - - -
24/01:30am 20.0 ESE 11 15 1014.8 - 0.2 - - - - - - -
24/01:00am 20.0 ESE 9 13 1015.0 - 0.2 - - - - - - -
24/12:30am 20.0 ESE 10 13 1015.3 - 0.2 - - - - - - -
24/12:00am 20.2 ESE 11 14 1015.3 - 0.2 - - - - - - -
 
Date/Time
WST
Temp
°C
Wind Pressure Rain since
9am
mm
Weather Cloud Vis
km
Sea
Height
m
Swell
Dir  Spd
kts
Gust
kts
hPa Trend Height
m
Period
s
Dir
23/11:30pm 20.3 ESE 11 14 1015.3 - 0.2 - - - - - - -

Other Formats:

Comma delimited format used in spreadsheet applications
http://www.bom.gov.au/fwo/IDW60701/IDW60701.94308.axf

JavaScript Object Notation format (JSON) in row-major order
http://www.bom.gov.au/fwo/IDW60701/IDW60701.94308.json